sensor_id;sensor_type;location;lat;lon;timestamp;pressure;altitude;pressure_sealevel;temperature;humidity
75407;BME280;63978;55.814;37.340;2022-10-18T11:28:48;99137.56;;;17.01;57.63
75407;BME280;63978;55.814;37.340;2022-10-18T11:36:24;99130.13;;;17.19;58.21
75407;BME280;63978;55.814;37.340;2022-10-18T11:39:15;99117.91;;;17.25;58.02
75407;BME280;63978;55.814;37.340;2022-10-18T11:41:56;99130.41;;;17.35;58.70
75407;BME280;63978;55.814;37.340;2022-10-18T11:44:45;99129.91;;;17.41;58.67
75407;BME280;63978;55.814;37.340;2022-10-18T11:58:45;99126.28;;;17.67;58.30
75407;BME280;63978;55.814;37.340;2022-10-18T12:04:21;99124.31;;;17.76;58.87
75407;BME280;63978;55.814;37.340;2022-10-18T12:06:51;99127.53;;;17.78;58.68
75407;BME280;63978;55.814;37.340;2022-10-18T12:09:26;99119.81;;;17.80;59.37
75407;BME280;63978;55.814;37.340;2022-10-18T12:11:57;99128.16;;;17.83;59.38
75407;BME280;63978;55.814;37.340;2022-10-18T12:14:32;99124.44;;;17.88;59.34
75407;BME280;63978;55.814;37.340;2022-10-18T12:17:03;99122.97;;;17.90;59.19
75407;BME280;63978;55.814;37.340;2022-10-18T12:19:32;99139.06;;;17.92;59.30
75407;BME280;63978;55.814;37.340;2022-10-18T12:22:24;99140.34;;;17.95;59.84
75407;BME280;63978;55.814;37.340;2022-10-18T12:24:51;99125.84;;;17.94;59.75
75407;BME280;63978;55.814;37.340;2022-10-18T12:27:17;99126.66;;;17.95;60.24
75407;BME280;63978;55.814;37.340;2022-10-18T12:29:52;99137.53;;;18.03;60.52
75407;BME280;63978;55.814;37.340;2022-10-18T12:32:24;99139.59;;;18.06;60.29
75407;BME280;63978;55.814;37.340;2022-10-18T12:34:59;99125.44;;;18.04;60.57
75407;BME280;63978;55.814;37.340;2022-10-18T12:40:20;99131.22;;;18.11;60.65
75407;BME280;63978;55.814;37.340;2022-10-18T12:42:49;99131.69;;;18.13;60.83
75407;BME280;63978;55.814;37.340;2022-10-18T12:48:36;99127.75;;;18.23;60.73
75407;BME280;63978;55.814;37.340;2022-10-18T12:51:22;99125.16;;;18.27;60.71
75407;BME280;63978;55.814;37.340;2022-10-18T12:54:07;99123.34;;;18.31;60.24
75407;BME280;63978;55.814;37.340;2022-10-18T12:56:40;99119.97;;;18.34;60.24
75407;BME280;63978;55.814;37.340;2022-10-18T13:12:44;99151.41;;;18.48;60.42
75407;BME280;63978;55.814;37.340;2022-10-18T13:15:34;99137.03;;;18.51;60.52
75407;BME280;63978;55.814;37.340;2022-10-18T13:21:05;99142.19;;;18.53;60.70
75407;BME280;63978;55.814;37.340;2022-10-18T13:23:36;99146.69;;;18.57;60.69
75407;BME280;63978;55.814;37.340;2022-10-18T13:34:34;99151.81;;;18.59;60.51
75407;BME280;63978;55.814;37.340;2022-10-18T13:39:35;99164.56;;;18.64;59.06
75407;BME280;63978;55.814;37.340;2022-10-18T13:44:36;99174.59;;;18.80;58.74
75407;BME280;63978;55.814;37.340;2022-10-18T14:01:12;99177.56;;;21.75;58.52
75407;BME280;63978;55.814;37.340;2022-10-18T14:14:42;99175.53;;;22.19;52.73
75407;BME280;63978;55.814;37.340;2022-10-18T14:22:48;99191.63;;;20.09;55.29
75407;BME280;63978;55.814;37.340;2022-10-18T14:28:08;99190.19;;;19.01;58.66
75407;BME280;63978;55.814;37.340;2022-10-18T14:30:35;99200.44;;;18.71;59.25
75407;BME280;63978;55.814;37.340;2022-10-18T14:33:01;99207.47;;;18.51;60.42
75407;BME280;63978;55.814;37.340;2022-10-18T14:35:29;99213.09;;;18.34;61.04
75407;BME280;63978;55.814;37.340;2022-10-18T14:37:56;99222.00;;;18.22;61.11
75407;BME280;63978;55.814;37.340;2022-10-18T14:40:39;99217.22;;;18.10;61.64
75407;BME280;63978;55.814;37.340;2022-10-18T14:45:33;99217.16;;;17.89;63.36
75407;BME280;63978;55.814;37.340;2022-10-18T14:48:24;99228.75;;;17.86;63.79
75407;BME280;63978;55.814;37.340;2022-10-18T14:50:56;99230.06;;;17.80;63.03
75407;BME280;63978;55.814;37.340;2022-10-18T14:53:26;99235.41;;;17.77;63.02
75407;BME280;63978;55.814;37.340;2022-10-18T14:55:57;99239.44;;;17.71;63.14
75407;BME280;63978;55.814;37.340;2022-10-18T14:58:30;99228.47;;;17.62;64.11
75407;BME280;63978;55.814;37.340;2022-10-18T15:00:57;99242.63;;;17.64;63.97
75407;BME280;63978;55.814;37.340;2022-10-18T15:03:23;99242.16;;;17.62;63.58
75407;BME280;63978;55.814;37.340;2022-10-18T15:06:11;99248.59;;;17.57;62.79
75407;BME280;63978;55.814;37.340;2022-10-18T15:08:40;99253.09;;;17.53;63.11
75407;BME280;63978;55.814;37.340;2022-10-18T15:11:07;99255.69;;;17.50;63.34
75407;BME280;63978;55.814;37.340;2022-10-18T15:13:34;99246.56;;;17.46;63.02
75407;BME280;63978;55.814;37.340;2022-10-18T15:16:03;99255.56;;;17.38;63.03
75407;BME280;63978;55.814;37.340;2022-10-18T15:18:29;99258.63;;;17.36;63.62
75407;BME280;63978;55.814;37.340;2022-10-18T15:23:42;99271.97;;;17.29;63.42
75407;BME280;63978;55.814;37.340;2022-10-18T15:26:10;99283.41;;;17.31;63.80
75407;BME280;63978;55.814;37.340;2022-10-18T15:28:42;99276.97;;;17.27;63.40
75407;BME280;63978;55.814;37.340;2022-10-18T15:31:31;99298.03;;;17.27;63.63
75407;BME280;63978;55.814;37.340;2022-10-18T15:34:10;99313.63;;;17.26;63.78
75407;BME280;63978;55.814;37.340;2022-10-18T15:36:39;99297.72;;;17.19;63.61
75407;BME280;63978;55.814;37.340;2022-10-18T15:39:06;99318.94;;;17.22;63.81
75407;BME280;63978;55.814;37.340;2022-10-18T15:44:23;99328.59;;;17.20;63.61
75407;BME280;63978;55.814;37.340;2022-10-18T15:46:52;99323.44;;;17.18;63.80
75407;BME280;63978;55.814;37.340;2022-10-18T15:52:26;99331.97;;;17.17;64.14
75407;BME280;63978;55.814;37.340;2022-10-18T15:54:52;99307.03;;;17.10;64.31
75407;BME280;63978;55.814;37.340;2022-10-18T15:57:18;99316.03;;;17.10;64.21
75407;BME280;63978;55.814;37.340;2022-10-18T16:00:16;99323.28;;;17.15;64.01
75407;BME280;63978;55.814;37.340;2022-10-18T16:02:42;99327.44;;;17.12;64.17
75407;BME280;63978;55.814;37.340;2022-10-18T16:05:15;99338.06;;;17.14;64.23
75407;BME280;63978;55.814;37.340;2022-10-18T16:07:50;99351.25;;;17.12;63.78
75407;BME280;63978;55.814;37.340;2022-10-18T16:10:16;99344.16;;;17.11;63.93
75407;BME280;63978;55.814;37.340;2022-10-18T16:12:41;99355.09;;;17.11;63.78
75407;BME280;63978;55.814;37.340;2022-10-18T16:15:07;99338.22;;;17.00;63.54
75407;BME280;63978;55.814;37.340;2022-10-18T16:17:33;99348.50;;;17.03;64.10
75407;BME280;63978;55.814;37.340;2022-10-18T16:19:58;99362.34;;;17.07;63.78
75407;BME280;63978;55.814;37.340;2022-10-18T16:22:24;99364.56;;;17.05;64.44
75407;BME280;63978;55.814;37.340;2022-10-18T16:24:49;99383.72;;;17.13;67.32
75407;BME280;63978;55.814;37.340;2022-10-18T16:27:17;99370.88;;;17.14;64.90
75407;BME280;63978;55.814;37.340;2022-10-18T16:29:42;99376.97;;;17.11;63.89
75407;BME280;63978;55.814;37.340;2022-10-18T16:32:08;99388.53;;;17.08;63.34
75407;BME280;63978;55.814;37.340;2022-10-18T16:34:33;99377.75;;;17.03;62.90
75407;BME280;63978;55.814;37.340;2022-10-18T16:37:01;99395.28;;;17.02;63.17
75407;BME280;63978;55.814;37.340;2022-10-18T16:39:30;99409.44;;;17.04;62.99
75407;BME280;63978;55.814;37.340;2022-10-18T16:41:59;99413.97;;;17.00;63.15
75407;BME280;63978;55.814;37.340;2022-10-18T16:44:24;99406.88;;;16.99;63.55
75407;BME280;63978;55.814;37.340;2022-10-18T16:46:50;99426.50;;;17.01;63.68
75407;BME280;63978;55.814;37.340;2022-10-18T16:49:21;99419.75;;;16.98;63.14
75407;BME280;63978;55.814;37.340;2022-10-18T16:51:48;99422.28;;;16.95;63.13
75407;BME280;63978;55.814;37.340;2022-10-18T16:54:14;99424.22;;;16.94;63.07
75407;BME280;63978;55.814;37.340;2022-10-18T16:56:39;99418.94;;;16.98;63.29
75407;BME280;63978;55.814;37.340;2022-10-18T16:59:05;99423.91;;;16.96;64.41
75407;BME280;63978;55.814;37.340;2022-10-18T17:01:31;99434.22;;;16.99;63.54
75407;BME280;63978;55.814;37.340;2022-10-18T17:03:56;99441.59;;;16.98;63.61
75407;BME280;63978;55.814;37.340;2022-10-18T17:06:24;99414.41;;;16.93;64.13
75407;BME280;63978;55.814;37.340;2022-10-18T17:08:51;99414.09;;;16.95;62.89
75407;BME280;63978;55.814;37.340;2022-10-18T17:11:19;99423.28;;;16.99;62.81
75407;BME280;63978;55.814;37.340;2022-10-18T17:13:45;99431.78;;;16.97;62.10
75407;BME280;63978;55.814;37.340;2022-10-18T17:16:34;99416.19;;;16.98;63.02
75407;BME280;63978;55.814;37.340;2022-10-18T17:19:04;99414.09;;;16.95;61.25
75407;BME280;63978;55.814;37.340;2022-10-18T17:21:29;99419.69;;;16.89;61.18
75407;BME280;63978;55.814;37.340;2022-10-18T17:23:55;99418.59;;;16.90;61.05
75407;BME280;63978;55.814;37.340;2022-10-18T17:26:27;99427.09;;;16.89;60.93
75407;BME280;63978;55.814;37.340;2022-10-18T17:28:55;99432.88;;;16.87;60.76
75407;BME280;63978;55.814;37.340;2022-10-18T17:31:21;99435.94;;;16.86;60.83
75407;BME280;63978;55.814;37.340;2022-10-18T17:33:47;99430.28;;;16.82;60.82
75407;BME280;63978;55.814;37.340;2022-10-18T17:36:12;99435.44;;;16.84;60.80
75407;BME280;63978;55.814;37.340;2022-10-18T17:38:38;99442.34;;;16.81;60.49
75407;BME280;63978;55.814;37.340;2022-10-18T17:41:08;99434.44;;;16.80;60.20
75407;BME280;63978;55.814;37.340;2022-10-18T17:43:36;99433.97;;;16.78;60.20
75407;BME280;63978;55.814;37.340;2022-10-18T17:46:02;99427.16;;;16.67;60.33
75407;BME280;63978;55.814;37.340;2022-10-18T17:48:28;99444.72;;;16.74;60.35
75407;BME280;63978;55.814;37.340;2022-10-18T17:50:54;99449.69;;;16.72;60.20
75407;BME280;63978;55.814;37.340;2022-10-18T17:53:20;99453.53;;;16.71;60.24
75407;BME280;63978;55.814;37.340;2022-10-18T17:55:49;99444.03;;;16.69;60.30
75407;BME280;63978;55.814;37.340;2022-10-18T17:58:15;99454.16;;;16.68;60.00
75407;BME280;63978;55.814;37.340;2022-10-18T18:00:40;99440.91;;;16.62;60.14
75407;BME280;63978;55.814;37.340;2022-10-18T18:03:06;99457.53;;;16.65;60.04
75407;BME280;63978;55.814;37.340;2022-10-18T18:05:32;99459.72;;;16.63;60.03
75407;BME280;63978;55.814;37.340;2022-10-18T18:07:59;99444.78;;;16.60;60.00
75407;BME280;63978;55.814;37.340;2022-10-18T18:10:25;99448.63;;;16.59;59.92
75407;BME280;63978;55.814;37.340;2022-10-18T18:12:50;99445.88;;;16.59;59.93
75407;BME280;63978;55.814;37.340;2022-10-18T18:15:16;99442.97;;;16.56;59.96
75407;BME280;63978;55.814;37.340;2022-10-18T18:17:41;99453.91;;;16.56;60.03
75407;BME280;63978;55.814;37.340;2022-10-18T18:20:07;99452.13;;;16.51;60.01
75407;BME280;63978;55.814;37.340;2022-10-18T18:22:33;99450.22;;;16.52;60.03
75407;BME280;63978;55.814;37.340;2022-10-18T18:24:58;99455.03;;;16.55;60.08
75407;BME280;63978;55.814;37.340;2022-10-18T18:27:24;99449.91;;;16.53;60.03
75407;BME280;63978;55.814;37.340;2022-10-18T18:29:49;99458.41;;;16.52;59.74
75407;BME280;63978;55.814;37.340;2022-10-18T18:32:15;99448.59;;;16.51;60.00
75407;BME280;63978;55.814;37.340;2022-10-18T18:34:40;99450.53;;;16.50;59.99
75407;BME280;63978;55.814;37.340;2022-10-18T18:37:07;99455.69;;;16.52;59.77
75407;BME280;63978;55.814;37.340;2022-10-18T18:39:34;99462.25;;;16.51;59.82
75407;BME280;63978;55.814;37.340;2022-10-18T18:42:01;99448.09;;;16.49;59.88
75407;BME280;63978;55.814;37.340;2022-10-18T18:44:28;99445.38;;;16.49;59.57
75407;BME280;63978;55.814;37.340;2022-10-18T18:46:54;99447.59;;;16.47;59.68
75407;BME280;63978;55.814;37.340;2022-10-18T18:49:20;99447.59;;;16.47;59.75
75407;BME280;63978;55.814;37.340;2022-10-18T18:51:45;99432.16;;;16.42;59.92
75407;BME280;63978;55.814;37.340;2022-10-18T18:54:12;99438.44;;;16.43;59.88
75407;BME280;63978;55.814;37.340;2022-10-18T18:56:39;99447.13;;;16.45;59.89
75407;BME280;63978;55.814;37.340;2022-10-18T18:59:05;99441.66;;;16.45;59.83
75407;BME280;63978;55.814;37.340;2022-10-18T19:01:36;99431.84;;;16.44;59.64
75407;BME280;63978;55.814;37.340;2022-10-18T19:04:02;99423.09;;;16.33;59.56
75407;BME280;63978;55.814;37.340;2022-10-18T19:06:35;99428.63;;;16.42;59.45
75407;BME280;63978;55.814;37.340;2022-10-18T19:09:04;99429.75;;;16.41;59.25
75407;BME280;63978;55.814;37.340;2022-10-18T19:11:34;99420.25;;;16.38;59.12
75407;BME280;63978;55.814;37.340;2022-10-18T19:14:00;99440.78;;;16.36;59.33
75407;BME280;63978;55.814;37.340;2022-10-18T19:19:16;99454.13;;;16.37;58.87
75407;BME280;63978;55.814;37.340;2022-10-18T19:22:01;99459.09;;;16.35;58.99
75407;BME280;63978;55.814;37.340;2022-10-18T19:24:32;99461.34;;;16.33;58.98
75407;BME280;63978;55.814;37.340;2022-10-18T19:27:04;99456.19;;;16.32;59.07
75407;BME280;63978;55.814;37.340;2022-10-18T19:29:32;99446.38;;;16.31;59.06
75407;BME280;63978;55.814;37.340;2022-10-18T19:32:00;99455.69;;;16.30;58.99
75407;BME280;63978;55.814;37.340;2022-10-18T19:34:27;99465.00;;;16.29;58.95
75407;BME280;63978;55.814;37.340;2022-10-18T19:36:53;99457.91;;;16.27;58.79
75407;BME280;63978;55.814;37.340;2022-10-18T19:39:29;99457.44;;;16.25;59.04
75407;BME280;63978;55.814;37.340;2022-10-18T19:41:57;99464.00;;;16.24;59.03
75407;BME280;63978;55.814;37.340;2022-10-18T19:44:26;99458.53;;;16.24;59.20
75407;BME280;63978;55.814;37.340;2022-10-18T19:46:52;99451.47;;;16.23;59.10
75407;BME280;63978;55.814;37.340;2022-10-18T19:49:19;99458.84;;;16.23;59.07
75407;BME280;63978;55.814;37.340;2022-10-18T19:51:45;99450.47;;;16.19;59.10
75407;BME280;63978;55.814;37.340;2022-10-18T19:54:11;99444.41;;;16.22;59.17
75407;BME280;63978;55.814;37.340;2022-10-18T19:56:37;99423.44;;;16.09;59.16
75407;BME280;63978;55.814;37.340;2022-10-18T19:59:03;99436.75;;;16.11;59.15
75407;BME280;63978;55.814;37.340;2022-10-18T20:01:29;99445.03;;;16.19;59.14
75407;BME280;63978;55.814;37.340;2022-10-18T20:03:55;99446.44;;;16.17;59.16
75407;BME280;63978;55.814;37.340;2022-10-18T20:06:21;99437.25;;;16.13;59.25
75407;BME280;63978;55.814;37.340;2022-10-18T20:08:47;99433.09;;;16.15;59.06
75407;BME280;63978;55.814;37.340;2022-10-18T20:11:18;99426.53;;;16.16;59.18
75407;BME280;63978;55.814;37.340;2022-10-18T20:13:44;99410.56;;;16.01;59.12
75407;BME280;63978;55.814;37.340;2022-10-18T20:16:11;99435.84;;;16.15;58.97
75407;BME280;63978;55.814;37.340;2022-10-18T20:18:37;99413.69;;;16.17;59.02
75407;BME280;63978;55.814;37.340;2022-10-18T20:21:04;99412.88;;;16.16;59.02
75407;BME280;63978;55.814;37.340;2022-10-18T20:23:30;99410.16;;;16.16;58.92
75407;BME280;63978;55.814;37.340;2022-10-18T20:26:05;99403.88;;;16.16;58.94
75407;BME280;63978;55.814;37.340;2022-10-18T20:28:31;99393.91;;;16.11;58.94
75407;BME280;63978;55.814;37.340;2022-10-18T20:31:02;99406.44;;;16.12;58.74
75407;BME280;63978;55.814;37.340;2022-10-18T20:33:29;99404.19;;;16.14;58.88
75407;BME280;63978;55.814;37.340;2022-10-18T20:35:55;99417.84;;;16.14;58.85
75407;BME280;63978;55.814;37.340;2022-10-18T20:38:20;99418.97;;;16.13;59.01
75407;BME280;63978;55.814;37.340;2022-10-18T20:40:46;99410.28;;;16.11;58.90
75407;BME280;63978;55.814;37.340;2022-10-18T20:43:11;99404.63;;;16.08;58.79
75407;BME280;63978;55.814;37.340;2022-10-18T20:45:37;99410.91;;;16.08;58.86
75407;BME280;63978;55.814;37.340;2022-10-18T20:48:02;99409.63;;;16.06;58.83
75407;BME280;63978;55.814;37.340;2022-10-18T20:50:28;99429.38;;;16.11;58.93
75407;BME280;63978;55.814;37.340;2022-10-18T20:52:53;99411.41;;;16.10;58.74
75407;BME280;63978;55.814;37.340;2022-10-18T20:55:19;99410.28;;;16.11;58.79
75407;BME280;63978;55.814;37.340;2022-10-18T20:57:44;99398.56;;;16.11;58.77
75407;BME280;63978;55.814;37.340;2022-10-18T21:00:10;99393.41;;;16.09;58.90
75407;BME280;63978;55.814;37.340;2022-10-18T21:02:37;99394.53;;;16.08;58.86
75407;BME280;63978;55.814;37.340;2022-10-18T21:05:03;99388.59;;;16.06;58.84
75407;BME280;63978;55.814;37.340;2022-10-18T21:07:29;99408.16;;;16.08;58.73
75407;BME280;63978;55.814;37.340;2022-10-18T21:09:54;99396.41;;;15.99;58.79
75407;BME280;63978;55.814;37.340;2022-10-18T21:12:20;99389.47;;;15.93;58.60
75407;BME280;63978;55.814;37.340;2022-10-18T21:14:45;99412.34;;;16.06;58.81
75407;BME280;63978;55.814;37.340;2022-10-18T21:17:11;99414.28;;;16.05;58.73
75407;BME280;63978;55.814;37.340;2022-10-18T21:19:36;99407.22;;;16.04;58.80
75407;BME280;63978;55.814;37.340;2022-10-18T21:22:02;99392.88;;;15.99;59.03
75407;BME280;63978;55.814;37.340;2022-10-18T21:24:28;99383.44;;;16.05;58.74
75407;BME280;63978;55.814;37.340;2022-10-18T21:26:54;99380.34;;;15.98;58.91
75407;BME280;63978;55.814;37.340;2022-10-18T21:29:20;99381.47;;;15.97;59.18
75407;BME280;63978;55.814;37.340;2022-10-18T21:31:54;99381.47;;;15.97;58.89
75407;BME280;63978;55.814;37.340;2022-10-18T21:34:22;99393.06;;;16.02;58.84
75407;BME280;63978;55.814;37.340;2022-10-18T21:36:48;99394.19;;;16.01;59.37
75407;BME280;63978;55.814;37.340;2022-10-18T21:39:16;99382.28;;;15.97;59.14
75407;BME280;63978;55.814;37.340;2022-10-18T21:41:42;99378.25;;;15.95;58.88
75407;BME280;63978;55.814;37.340;2022-10-18T21:44:08;99383.09;;;15.98;59.23
75407;BME280;63978;55.814;37.340;2022-10-18T21:46:35;99382.28;;;15.97;59.13
75407;BME280;63978;55.814;37.340;2022-10-18T21:49:01;99384.19;;;15.97;59.24
75407;BME280;63978;55.814;37.340;2022-10-18T21:51:27;99381.47;;;15.97;59.22
75407;BME280;63978;55.814;37.340;2022-10-18T21:53:55;99374.41;;;15.96;59.33
75407;BME280;63978;55.814;37.340;2022-10-18T21:56:31;99372.78;;;15.95;59.31
75407;BME280;63978;55.814;37.340;2022-10-18T21:58:57;99375.50;;;15.95;59.34
75407;BME280;63978;55.814;37.340;2022-10-18T22:01:26;99367.63;;;15.93;59.32
75407;BME280;63978;55.814;37.340;2022-10-18T22:03:54;99381.28;;;15.93;59.59
75407;BME280;63978;55.814;37.340;2022-10-18T22:06:21;99368.75;;;15.92;59.38
75407;BME280;63978;55.814;37.340;2022-10-18T22:08:51;99377.06;;;15.87;59.34
75407;BME280;63978;55.814;37.340;2022-10-18T22:11:21;99376.63;;;15.93;59.30
75407;BME280;63978;55.814;37.340;2022-10-18T22:13:47;99363.41;;;15.87;59.38
75407;BME280;63978;55.814;37.340;2022-10-18T22:16:14;99370.38;;;15.93;59.27
75407;BME280;63978;55.814;37.340;2022-10-18T22:18:40;99376.31;;;15.95;59.28
75407;BME280;63978;55.814;37.340;2022-10-18T22:21:07;99361.69;;;15.91;59.45
75407;BME280;63978;55.814;37.340;2022-10-18T22:23:35;99354.25;;;15.83;59.23
75407;BME280;63978;55.814;37.340;2022-10-18T22:26:09;99352.00;;;15.85;59.12
75407;BME280;63978;55.814;37.340;2022-10-18T22:28:36;99369.06;;;15.90;59.29
75407;BME280;63978;55.814;37.340;2022-10-18T22:31:02;99347.19;;;15.82;59.48
75407;BME280;63978;55.814;37.340;2022-10-18T22:33:28;99353.00;;;15.89;59.37
75407;BME280;63978;55.814;37.340;2022-10-18T22:35:54;99349.78;;;15.87;59.18
75407;BME280;63978;55.814;37.340;2022-10-18T22:38:19;99325.34;;;15.82;59.20
75407;BME280;63978;55.814;37.340;2022-10-18T22:40:45;99331.97;;;15.89;59.32
75407;BME280;63978;55.814;37.340;2022-10-18T22:43:10;99340.47;;;15.88;59.37
75407;BME280;63978;55.814;37.340;2022-10-18T22:45:38;99344.81;;;15.89;59.26
75407;BME280;63978;55.814;37.340;2022-10-18T22:48:03;99352.19;;;15.88;59.25
75407;BME280;63978;55.814;37.340;2022-10-18T22:50:29;99334.72;;;15.89;59.22
75407;BME280;63978;55.814;37.340;2022-10-18T22:52:55;99311.53;;;15.78;59.16
75407;BME280;63978;55.814;37.340;2022-10-18T22:55:20;99320.09;;;15.85;59.29
75407;BME280;63978;55.814;37.340;2022-10-18T22:57:46;99314.31;;;15.87;59.22
75407;BME280;63978;55.814;37.340;2022-10-18T23:00:12;99314.31;;;15.87;59.27
75407;BME280;63978;55.814;37.340;2022-10-18T23:02:37;99303.72;;;15.85;59.34
75407;BME280;63978;55.814;37.340;2022-10-18T23:05:03;99302.41;;;15.83;59.18
75407;BME280;63978;55.814;37.340;2022-10-18T23:07:28;99299.06;;;15.86;59.19
75407;BME280;63978;55.814;37.340;2022-10-18T23:09:54;99307.25;;;15.86;59.28
75407;BME280;63978;55.814;37.340;2022-10-18T23:12:19;99285.19;;;15.74;59.32
75407;BME280;63978;55.814;37.340;2022-10-18T23:14:45;99309.97;;;15.86;59.45
75407;BME280;63978;55.814;37.340;2022-10-18T23:17:10;99291.00;;;15.81;59.02
75407;BME280;63978;55.814;37.340;2022-10-18T23:19:36;99303.72;;;15.85;59.15
75407;BME280;63978;55.814;37.340;2022-10-18T23:22:01;99287.66;;;15.84;59.36
75407;BME280;63978;55.814;37.340;2022-10-18T23:24:27;99273.34;;;15.78;59.28
75407;BME280;63978;55.814;37.340;2022-10-18T23:26:52;99271.09;;;15.80;59.42
75407;BME280;63978;55.814;37.340;2022-10-18T23:29:17;99281.88;;;15.85;59.18
75407;BME280;63978;55.814;37.340;2022-10-18T23:31:43;99262.59;;;15.82;59.13
75407;BME280;63978;55.814;37.340;2022-10-18T23:34:09;99276.75;;;15.84;59.09
75407;BME280;63978;55.814;37.340;2022-10-18T23:36:34;99274.00;;;15.84;59.13
75407;BME280;63978;55.814;37.340;2022-10-18T23:39:01;99274.00;;;15.84;59.21
75407;BME280;63978;55.814;37.340;2022-10-18T23:41:27;99256.78;;;15.75;59.19
75407;BME280;63978;55.814;37.340;2022-10-18T23:43:53;99256.66;;;15.80;59.32
75407;BME280;63978;55.814;37.340;2022-10-18T23:46:18;99257.16;;;15.82;59.00
75407;BME280;63978;55.814;37.340;2022-10-18T23:48:44;99247.00;;;15.74;59.24
75407;BME280;63978;55.814;37.340;2022-10-18T23:51:10;99258.44;;;15.84;59.03
75407;BME280;63978;55.814;37.340;2022-10-18T23:53:36;99261.50;;;15.83;59.13
75407;BME280;63978;55.814;37.340;2022-10-18T23:56:07;99260.69;;;15.82;59.28
75407;BME280;63978;55.814;37.340;2022-10-18T23:58:35;99263.09;;;15.84;59.16
